Time;durP1;ratioP1;P1;durP2;ratioP2;P2;SDS_P1;SDS_P2;PMS_P1;PMS_P2;Temp;Humidity;BMP_temperature;BMP_pressure;BME280_temperature;BME280_humidity;BME280_pressure;Samples;Min_cycle;Max_cycle;Signal;HPM_P1;HPM_P2
2022/12/22 03:26:22;;;;;;;1.58;1.48;;;21.00;38.60;;;;;;5095689;28;20060;-11
2022/12/22 03:28:48;;;;;;;1.70;1.60;;;21.00;38.60;;;;;;5095283;28;20075;-11
2022/12/22 03:31:15;;;;;;;2.22;1.67;;;21.00;38.60;;;;;;5095606;28;20486;-11
2022/12/22 03:33:42;;;;;;;1.75;1.40;;;20.90;38.60;;;;;;5095490;28;20069;-11
2022/12/22 03:36:08;;;;;;;1.80;1.67;;;21.00;38.60;;;;;;5095389;28;20423;-11
2022/12/22 03:38:34;;;;;;;1.35;1.25;;;21.00;38.60;;;;;;5094972;28;20048;-11
2022/12/22 03:41:00;;;;;;;1.98;1.33;;;21.00;38.60;;;;;;5095112;28;20047;-11
2022/12/22 03:46:31;;;;;;;1.85;1.50;;;21.00;38.60;;;;;;5095604;28;20048;-11
2022/12/22 03:49:10;;;;;;;1.80;1.50;;;21.00;38.60;;;;;;5095462;28;20139;-11
2022/12/22 03:51:44;;;;;;;1.55;1.45;;;21.00;39.00;;;;;;5077121;28;20051;-11
2022/12/22 03:54:16;;;;;;;2.80;1.67;;;20.90;38.50;;;;;;5095354;28;20056;-11
2022/12/22 03:56:42;;;;;;;3.03;1.60;;;21.00;38.60;;;;;;5094989;28;20101;-11
2022/12/22 03:59:08;;;;;;;2.25;1.60;;;21.00;38.60;;;;;;5095094;28;20056;-11
2022/12/22 04:01:38;;;;;;;1.70;1.60;;;20.90;38.60;;;;;;5094795;28;20048;-11
2022/12/22 04:04:04;;;;;;;1.52;1.42;;;21.00;38.60;;;;;;5095074;28;20389;-11
2022/12/22 04:06:29;;;;;;;1.60;1.50;;;21.00;38.60;;;;;;5094852;28;20077;-12
2022/12/22 04:08:55;;;;;;;2.05;1.70;;;21.00;38.60;;;;;;5095200;28;20044;-11
2022/12/22 04:14:05;;;;;;;2.67;1.73;;;21.00;38.60;;;;;;5095122;28;20478;-11
2022/12/22 04:16:30;;;;;;;1.55;1.45;;;21.00;38.50;;;;;;5094958;28;20055;-11
2022/12/22 04:18:56;;;;;;;1.70;1.60;;;21.00;38.60;;;;;;5094948;28;20138;-11
2022/12/22 04:21:22;;;;;;;1.40;1.30;;;21.00;38.60;;;;;;5094679;28;20512;-11
2022/12/22 04:23:51;;;;;;;1.50;1.40;;;21.00;38.60;;;;;;5094725;28;20055;-11
2022/12/22 04:26:18;;;;;;;1.38;1.27;;;21.00;38.60;;;;;;5094689;28;20060;-11
2022/12/22 04:28:44;;;;;;;1.70;1.30;;;20.90;38.60;;;;;;5094530;28;20052;-11
2022/12/22 04:31:11;;;;;;;1.60;1.50;;;21.00;38.60;;;;;;5094681;28;20540;-11
2022/12/22 04:33:37;;;;;;;1.50;1.40;;;21.00;38.50;;;;;;5094654;28;20059;-11
2022/12/22 04:36:03;;;;;;;1.73;1.40;;;21.00;39.10;;;;;;5094253;28;20436;-11
2022/12/22 04:38:28;;;;;;;1.63;1.48;;;21.00;38.60;;;;;;5074729;28;20060;-11
2022/12/22 04:40:54;;;;;;;1.55;1.45;;;20.90;38.50;;;;;;5094115;28;20052;-11
2022/12/22 04:43:20;;;;;;;1.38;1.27;;;20.90;38.60;;;;;;5094038;28;20081;-11
2022/12/22 04:45:45;;;;;;;1.70;1.60;;;20.90;38.60;;;;;;5094020;28;20051;-11
2022/12/22 04:48:11;;;;;;;1.60;1.50;;;21.00;38.60;;;;;;5094148;28;20490;-12
2022/12/22 04:50:36;;;;;;;1.40;1.30;;;20.90;38.60;;;;;;5094370;28;20128;-11
2022/12/22 04:53:02;;;;;;;1.77;1.58;;;20.90;38.60;;;;;;5094352;28;20105;-11
2022/12/22 04:55:28;;;;;;;2.00;1.75;;;20.90;38.60;;;;;;5094708;28;20537;-11
2022/12/22 04:57:53;;;;;;;1.77;1.50;;;21.00;38.60;;;;;;5094352;28;20056;-11
2022/12/22 05:00:19;;;;;;;2.20;1.60;;;21.00;38.60;;;;;;5094099;28;20055;-11
2022/12/22 05:02:45;;;;;;;1.60;1.50;;;21.00;38.60;;;;;;5094093;28;20087;-11
2022/12/22 05:05:10;;;;;;;1.52;1.42;;;21.00;38.60;;;;;;5093979;28;20055;-11
2022/12/22 05:07:36;;;;;;;1.55;1.45;;;21.00;38.60;;;;;;5094165;28;20486;-11
2022/12/22 05:10:03;;;;;;;2.85;1.80;;;21.00;38.50;;;;;;5094072;28;20054;-11
2022/12/22 05:15:13;;;;;;;1.50;1.40;;;21.00;38.60;;;;;;5093375;28;20057;-11
2022/12/22 05:17:39;;;;;;;1.40;1.30;;;21.00;38.60;;;;;;5075323;28;20409;-12
2022/12/22 05:20:06;;;;;;;2.40;1.48;;;21.00;38.60;;;;;;5093884;28;20134;-11
2022/12/22 05:22:32;;;;;;;1.75;1.35;;;21.00;38.60;;;;;;5093817;28;20055;-11
2022/12/22 05:24:57;;;;;;;1.60;1.50;;;21.00;38.60;;;;;;5093813;28;20459;-11
2022/12/22 05:27:23;;;;;;;1.50;1.40;;;21.00;38.60;;;;;;5093792;28;20097;-11
2022/12/22 05:29:48;;;;;;;1.40;1.30;;;21.00;38.60;;;;;;5093578;28;20094;-11
2022/12/22 05:32:14;;;;;;;1.88;1.40;;;21.00;38.50;;;;;;5093954;28;20051;-11
2022/12/22 05:34:40;;;;;;;1.70;1.60;;;21.00;38.50;;;;;;5093766;28;20130;-11
2022/12/22 05:37:06;;;;;;;1.85;1.27;;;21.00;38.50;;;;;;5093602;28;20140;-11
2022/12/22 05:39:31;;;;;;;1.85;1.60;;;21.00;38.50;;;;;;5093479;28;20055;-11
2022/12/22 05:41:57;;;;;;;1.40;1.30;;;21.00;38.50;;;;;;5093308;28;20060;-11
2022/12/22 05:44:22;;;;;;;2.08;1.60;;;21.00;38.60;;;;;;5093470;28;20441;-11
2022/12/22 05:46:51;;;;;;;1.67;1.30;;;21.00;38.50;;;;;;5093677;28;20119;-11
2022/12/22 05:49:17;;;;;;;1.65;1.42;;;21.00;38.50;;;;;;5093322;28;20081;-11
2022/12/22 05:51:43;;;;;;;1.60;1.50;;;21.00;38.50;;;;;;5093016;28;20048;-12
2022/12/22 05:54:09;;;;;;;1.48;1.38;;;21.00;38.50;;;;;;5093204;28;20051;-11
2022/12/22 05:56:35;;;;;;;1.60;1.50;;;21.00;38.50;;;;;;5093143;28;20106;-11
2022/12/22 05:59:00;;;;;;;1.52;1.40;;;21.00;38.50;;;;;;5093242;28;20117;-11
2022/12/22 06:01:26;;;;;;;1.30;1.10;;;21.00;38.50;;;;;;5093540;28;20062;-11
2022/12/22 06:03:52;;;;;;;1.33;1.20;;;21.00;38.50;;;;;;5093047;28;20052;-11
2022/12/22 06:06:17;;;;;;;1.45;1.33;;;21.10;38.50;;;;;;5093110;28;20418;-11
2022/12/22 06:08:44;;;;;;;2.10;1.60;;;21.00;38.40;;;;;;5093418;28;20040;-11
2022/12/22 06:11:11;;;;;;;1.40;1.20;;;21.00;38.50;;;;;;5093200;28;20431;-12
2022/12/22 06:13:36;;;;;;;1.20;1.10;;;21.10;38.50;;;;;;5093025;28;20449;-11
2022/12/22 06:16:03;;;;;;;1.40;1.30;;;21.00;38.50;;;;;;5092625;28;20095;-11
2022/12/22 06:18:29;;;;;;;1.90;1.40;;;21.10;38.50;;;;;;5092781;28;20056;-11
2022/12/22 06:20:55;;;;;;;1.30;1.20;;;21.10;38.50;;;;;;5092633;28;20451;-11
2022/12/22 06:23:21;;;;;;;1.60;1.40;;;21.10;38.50;;;;;;5093144;28;20134;-11
2022/12/22 06:25:58;;;;;;;1.75;1.50;;;21.10;38.50;;;;;;5092382;28;20055;-11
2022/12/22 06:28:24;;;;;;;1.60;1.38;;;21.00;38.50;;;;;;5092715;28;20056;-11
2022/12/22 06:30:49;;;;;;;1.50;1.40;;;21.00;38.50;;;;;;5092498;28;20100;-11
2022/12/22 06:33:15;;;;;;;1.35;1.20;;;21.00;38.50;;;;;;5093000;28;20045;-11
2022/12/22 06:35:41;;;;;;;1.45;1.35;;;21.10;38.50;;;;;;5075026;28;20048;-11
2022/12/22 06:38:06;;;;;;;1.38;1.27;;;21.00;38.50;;;;;;5092764;28;20043;-12
2022/12/22 06:40:32;;;;;;;1.05;1.05;;;21.10;38.50;;;;;;5092704;28;20083;-11
2022/12/22 06:43:09;;;;;;;1.40;1.30;;;21.10;38.50;;;;;;5092656;28;20086;-11
2022/12/22 06:45:40;;;;;;;1.40;1.30;;;21.00;38.50;;;;;;5092682;28;20128;-11
2022/12/22 06:48:07;;;;;;;1.50;1.40;;;21.00;38.40;;;;;;5092437;28;20063;-11
2022/12/22 06:50:33;;;;;;;1.30;1.20;;;21.00;38.50;;;;;;5092472;28;20086;-11
2022/12/22 06:52:59;;;;;;;1.20;1.10;;;21.00;38.50;;;;;;5092958;28;20125;-11
2022/12/22 06:55:24;;;;;;;1.80;1.50;;;21.00;38.50;;;;;;5092708;28;20063;-11
2022/12/22 06:57:50;;;;;;;1.60;1.50;;;21.10;38.50;;;;;;5092717;28;20052;-11
2022/12/22 07:00:16;;;;;;;1.65;1.40;;;21.00;38.50;;;;;;5092067;28;20502;-11
2022/12/22 07:02:42;;;;;;;1.58;1.48;;;21.00;38.50;;;;;;5092408;28;20044;-11
2022/12/22 07:05:07;;;;;;;1.65;1.50;;;21.00;38.60;;;;;;5092639;28;20478;-11
2022/12/22 07:07:33;;;;;;;1.20;1.10;;;21.00;38.50;;;;;;5092123;28;20079;-11
2022/12/22 07:09:59;;;;;;;1.48;1.30;;;21.00;38.50;;;;;;5092270;28;20456;-11
2022/12/22 07:12:25;;;;;;;1.58;1.30;;;21.00;38.50;;;;;;5092340;28;20056;-11
2022/12/22 07:14:51;;;;;;;1.73;1.40;;;21.00;38.50;;;;;;5073952;28;20052;-11
2022/12/22 07:17:17;;;;;;;1.33;1.23;;;21.00;38.50;;;;;;5092360;28;20530;-11
2022/12/22 07:19:43;;;;;;;1.23;1.13;;;21.00;38.50;;;;;;5092038;28;20075;-11
2022/12/22 07:22:08;;;;;;;1.40;1.30;;;21.00;38.50;;;;;;5092373;28;20090;-11
2022/12/22 07:24:34;;;;;;;1.73;1.30;;;21.00;38.50;;;;;;5091930;28;20063;-11
2022/12/22 07:26:59;;;;;;;1.15;1.05;;;21.00;38.50;;;;;;5092029;28;20044;-11
2022/12/22 07:29:25;;;;;;;2.53;1.00;;;21.00;38.50;;;;;;5092284;28;20048;-11
2022/12/22 07:31:51;;;;;;;1.20;1.10;;;21.00;38.50;;;;;;5092295;28;20052;-11
2022/12/22 07:34:17;;;;;;;1.50;1.33;;;21.00;38.50;;;;;;5091723;28;20102;-11
2022/12/22 07:36:43;;;;;;;1.63;1.20;;;21.00;38.50;;;;;;5091969;28;20494;-11
2022/12/22 07:39:09;;;;;;;1.27;1.17;;;21.00;38.50;;;;;;5095227;28;20090;-11
2022/12/22 07:44:20;;;;;;;2.03;1.30;;;21.00;38.50;;;;;;5077648;28;20147;-11
2022/12/22 07:46:46;;;;;;;1.33;1.23;;;21.00;38.50;;;;;;5095264;28;20082;-11
2022/12/22 07:51:57;;;;;;;1.50;1.40;;;21.00;38.60;;;;;;5095720;28;20048;-11
2022/12/22 07:54:23;;;;;;;1.45;1.20;;;21.00;38.50;;;;;;5095155;28;20101;-11
2022/12/22 07:56:49;;;;;;;1.35;1.25;;;21.00;38.60;;;;;;5094986;28;20139;-11
2022/12/22 07:59:15;;;;;;;1.02;1.00;;;21.00;38.60;;;;;;5077045;28;20091;-11
2022/12/22 08:01:41;;;;;;;1.65;1.50;;;21.00;38.60;;;;;;5095227;28;20048;-11
2022/12/22 08:04:08;;;;;;;1.20;1.10;;;21.00;38.60;;;;;;5095050;28;20056;-11
2022/12/22 08:06:34;;;;;;;1.50;1.40;;;21.00;39.20;;;;;;5094998;28;20051;-11
2022/12/22 08:09:00;;;;;;;1.13;1.05;;;21.00;38.60;;;;;;5095406;28;20048;-11
2022/12/22 08:11:26;;;;;;;1.65;1.35;;;21.00;38.60;;;;;;5095209;28;20048;-11
2022/12/22 08:13:52;;;;;;;1.63;1.42;;;21.00;38.60;;;;;;5095156;28;20100;-11
2022/12/22 08:16:19;;;;;;;1.50;1.17;;;21.00;38.60;;;;;;5094431;28;20071;-12
2022/12/22 08:18:45;;;;;;;1.30;1.20;;;21.00;38.60;;;;;;5094511;28;20058;-11
2022/12/22 08:21:11;;;;;;;1.35;1.20;;;21.00;38.60;;;;;;5094693;28;20424;-12
2022/12/22 08:23:37;;;;;;;1.15;1.05;;;21.00;38.60;;;;;;5094604;28;20048;-12
2022/12/22 08:26:10;;;;;;;1.25;1.15;;;21.00;38.60;;;;;;5095173;28;20551;-12
2022/12/22 08:28:51;;;;;;;1.27;1.17;;;21.00;38.60;;;;;;5094731;28;20056;-11
2022/12/22 08:31:18;;;;;;;1.00;0.90;;;21.00;38.60;;;;;;5094847;28;20047;-11
2022/12/22 08:33:44;;;;;;;1.27;1.13;;;21.00;38.60;;;;;;5094430;28;20052;-11
2022/12/22 08:36:10;;;;;;;1.25;1.15;;;21.00;38.60;;;;;;5094412;28;20098;-11
2022/12/22 08:38:38;;;;;;;1.50;1.40;;;21.00;38.60;;;;;;5094182;28;20060;-12
2022/12/22 08:41:04;;;;;;;1.50;1.38;;;21.00;38.60;;;;;;5094208;28;20055;-11
2022/12/22 08:43:32;;;;;;;1.33;1.23;;;21.00;38.60;;;;;;5075934;28;20056;-12
2022/12/22 08:45:57;;;;;;;1.23;1.13;;;21.00;38.60;;;;;;5092956;28;20659;-12
2022/12/22 08:48:23;;;;;;;1.52;1.42;;;21.00;38.60;;;;;;5093527;28;20093;-12
2022/12/22 08:50:49;;;;;;;1.42;1.20;;;21.00;38.70;;;;;;5092800;28;20082;-12
2022/12/22 08:53:14;;;;;;;1.20;1.10;;;21.00;38.60;;;;;;5092921;28;20500;-12
2022/12/22 08:55:40;;;;;;;1.40;1.30;;;21.00;38.60;;;;;;5091673;28;20063;-12
2022/12/22 08:58:05;;;;;;;1.70;1.20;;;21.00;38.60;;;;;;5091585;28;20063;-12
2022/12/22 09:00:31;;;;;;;1.30;1.20;;;21.00;38.60;;;;;;5092527;28;20055;-11
2022/12/22 09:02:57;;;;;;;1.65;1.20;;;21.00;38.60;;;;;;5093038;28;20060;-12
2022/12/22 09:05:23;;;;;;;1.00;1.00;;;21.00;38.70;;;;;;5093430;28;20056;-12
2022/12/22 09:07:48;;;;;;;1.30;1.15;;;21.00;38.70;;;;;;5093693;28;20048;-12
2022/12/22 09:10:14;;;;;;;1.33;1.23;;;21.00;38.70;;;;;;5093824;28;20056;-11
2022/12/22 09:12:40;;;;;;;1.30;1.20;;;21.00;38.70;;;;;;5093936;28;20059;-11
2022/12/22 09:15:07;;;;;;;1.40;1.30;;;20.90;38.70;;;;;;5093739;28;20079;-11
2022/12/22 09:17:35;;;;;;;1.60;1.30;;;21.00;38.70;;;;;;5093489;28;20127;-11
2022/12/22 09:20:01;;;;;;;1.30;1.20;;;21.00;38.70;;;;;;5093688;28;20482;-11
2022/12/22 09:22:27;;;;;;;1.67;1.40;;;21.00;38.70;;;;;;5093628;28;20052;-11
2022/12/22 09:24:53;;;;;;;1.80;1.30;;;21.00;38.60;;;;;;5093274;28;20044;-12
2022/12/22 09:27:18;;;;;;;1.15;1.05;;;21.00;38.60;;;;;;5093262;28;20138;-12
2022/12/22 09:29:44;;;;;;;1.02;0.93;;;21.00;38.60;;;;;;5093287;28;20052;-12
2022/12/22 09:32:09;;;;;;;2.28;1.10;;;21.00;38.60;;;;;;5093417;28;20509;-11
2022/12/22 09:34:35;;;;;;;1.20;1.10;;;21.00;38.60;;;;;;5093513;28;20060;-11
2022/12/22 09:37:01;;;;;;;1.25;1.15;;;21.00;38.60;;;;;;5093229;28;20040;-12
2022/12/22 09:39:27;;;;;;;1.80;1.00;;;21.00;38.60;;;;;;5093903;28;20188;-11
2022/12/22 09:41:54;;;;;;;1.73;1.35;;;21.00;38.60;;;;;;5093630;28;20051;-11
2022/12/22 09:44:43;;;;;;;1.10;1.02;;;21.00;38.60;;;;;;5093361;28;20048;-11
2022/12/22 09:47:34;;;;;;;1.45;1.35;;;21.00;38.60;;;;;;5093185;28;20036;-11
2022/12/22 09:50:01;;;;;;;1.23;1.13;;;21.10;38.60;;;;;;5093238;28;20127;-11
2022/12/22 09:52:41;;;;;;;1.20;1.10;;;21.00;38.60;;;;;;5093212;28;20075;-11
2022/12/22 09:55:33;;;;;;;1.55;1.10;;;21.00;38.70;;;;;;5093294;28;20074;-12
2022/12/22 09:57:59;;;;;;;1.30;1.20;;;21.00;38.70;;;;;;5093310;28;20123;-11
2022/12/22 10:00:26;;;;;;;1.05;1.00;;;21.00;38.70;;;;;;5092774;28;20139;-11
2022/12/22 10:03:21;;;;;;;1.40;1.30;;;21.00;38.70;;;;;;5092874;28;20083;-11
2022/12/22 10:06:29;;;;;;;1.50;1.40;;;21.00;38.70;;;;;;5092577;28;20067;-11
2022/12/22 10:08:55;;;;;;;1.23;1.13;;;21.00;38.70;;;;;;4991257;28;20050;-11
2022/12/22 10:11:20;;;;;;;1.25;1.17;;;21.00;38.70;;;;;;5071640;28;20048;-11
2022/12/22 10:13:47;;;;;;;2.08;1.35;;;21.00;38.70;;;;;;5093149;28;20501;-11
2022/12/22 10:16:26;;;;;;;1.30;1.20;;;21.10;38.70;;;;;;5074539;28;20535;-12
2022/12/22 10:19:06;;;;;;;1.30;1.20;;;21.10;38.70;;;;;;5093207;28;20488;-11
2022/12/22 10:21:32;;;;;;;1.30;1.20;;;21.10;39.20;;;;;;5092909;28;20048;-11
2022/12/22 10:23:57;;;;;;;1.35;1.10;;;21.10;38.70;;;;;;5092751;28;20135;-11
2022/12/22 10:26:33;;;;;;;1.20;1.10;;;21.00;38.70;;;;;;5092823;28;20059;-11
2022/12/22 10:29:09;;;;;;;2.10;1.25;;;21.00;38.70;;;;;;5092656;28;20094;-11
2022/12/22 10:31:53;;;;;;;1.35;1.25;;;21.00;38.70;;;;;;5092852;28;20070;-11
2022/12/22 10:34:19;;;;;;;1.60;1.38;;;21.00;38.70;;;;;;5092769;28;20040;-11
2022/12/22 10:36:50;;;;;;;1.20;1.10;;;21.00;38.70;;;;;;5092877;28;20050;-11
2022/12/22 10:39:25;;;;;;;1.33;1.10;;;21.00;38.70;;;;;;5092819;28;20055;-12
2022/12/22 10:41:54;;;;;;;1.25;1.15;;;21.10;38.70;;;;;;5092572;28;20596;-11
2022/12/22 10:44:27;;;;;;;1.02;1.02;;;21.10;38.60;;;;;;5092605;28;20052;-11
2022/12/22 10:46:56;;;;;;;1.30;1.20;;;21.10;38.60;;;;;;5092682;28;20052;-11
2022/12/22 10:49:35;;;;;;;1.20;1.08;;;21.10;38.60;;;;;;5092589;28;20469;-12
2022/12/22 10:52:21;;;;;;;1.42;1.33;;;21.10;38.60;;;;;;5092477;28;20071;-11
2022/12/22 10:54:47;;;;;;;1.40;1.30;;;21.10;38.60;;;;;;5092379;28;20537;-11
2022/12/22 10:57:12;;;;;;;1.30;1.20;;;21.10;38.50;;;;;;5092436;28;20139;-11
2022/12/22 10:59:50;;;;;;;1.60;1.30;;;21.10;38.70;;;;;;5092159;28;20130;-11
2022/12/22 11:02:22;;;;;;;1.45;1.00;;;21.10;38.60;;;;;;5090407;28;20084;-12
2022/12/22 11:04:48;;;;;;;1.15;1.05;;;21.10;38.60;;;;;;5092078;28;20059;-11
2022/12/22 11:07:15;;;;;;;1.48;1.33;;;21.10;38.60;;;;;;5090016;28;20040;-13
2022/12/22 11:09:41;;;;;;;1.10;1.00;;;21.10;38.60;;;;;;5090347;28;20052;-11
2022/12/22 11:12:23;;;;;;;1.50;1.40;;;21.10;38.60;;;;;;5093281;28;20054;-11
2022/12/22 11:15:10;;;;;;;1.20;1.10;;;21.10;38.60;;;;;;5095747;28;20048;-11
2022/12/22 11:17:48;;;;;;;1.52;1.42;;;21.10;38.60;;;;;;5095598;28;20059;-11
2022/12/22 11:20:48;;;;;;;1.20;1.10;;;21.10;38.60;;;;;;5096042;28;20058;-11
2022/12/22 11:23:35;;;;;;;1.30;1.20;;;21.10;38.60;;;;;;5095862;28;20125;-11
2022/12/22 11:26:07;;;;;;;3.00;1.50;;;21.20;38.60;;;;;;5095465;28;20044;-11
2022/12/22 11:28:52;;;;;;;1.33;1.20;;;21.10;38.60;;;;;;5095427;28;20075;-11
2022/12/22 11:31:31;;;;;;;1.40;1.20;;;21.10;38.60;;;;;;5095629;28;20051;-11
2022/12/22 11:34:06;;;;;;;1.27;1.15;;;21.10;38.60;;;;;;5095281;28;20054;-12
2022/12/22 11:36:52;;;;;;;1.50;1.40;;;21.10;38.70;;;;;;5094923;28;20881;-12
2022/12/22 11:39:48;;;;;;;1.40;1.20;;;21.10;38.70;;;;;;5095336;28;20108;-12
2022/12/22 11:42:39;;;;;;;1.20;1.10;;;21.10;38.70;;;;;;5050585;28;20044;-11
2022/12/22 11:45:18;;;;;;;1.30;1.20;;;21.10;38.70;;;;;;5095337;28;20052;-12
2022/12/22 11:48:23;;;;;;;1.50;1.40;;;21.10;38.60;;;;;;5095461;28;20052;-11
2022/12/22 11:50:54;;;;;;;1.40;1.30;;;21.10;38.70;;;;;;5063323;28;20054;-11
2022/12/22 11:53:35;;;;;;;1.30;1.10;;;21.10;38.60;;;;;;5094854;28;20083;-11
2022/12/22 11:56:21;;;;;;;1.27;1.10;;;21.10;38.60;;;;;;5075269;28;20057;-11
2022/12/22 11:59:02;;;;;;;2.05;1.30;;;21.10;38.60;;;;;;5094825;28;20154;-11
2022/12/22 12:01:39;;;;;;;1.20;1.10;;;21.10;38.60;;;;;;5095000;28;20046;-11
2022/12/22 12:04:33;;;;;;;1.60;1.35;;;21.10;38.60;;;;;;5094933;28;20048;-11
2022/12/22 12:07:21;;;;;;;2.17;1.10;;;21.10;38.60;;;;;;5091190;28;20460;-11
2022/12/22 12:10:21;;;;;;;1.33;1.23;;;21.10;38.70;;;;;;5095170;28;20077;-11
2022/12/22 12:13:00;;;;;;;1.33;1.10;;;21.10;38.70;;;;;;5094632;28;20040;-12
2022/12/22 12:15:39;;;;;;;1.20;1.10;;;21.10;38.70;;;;;;5094481;28;20102;-12
2022/12/22 12:18:25;;;;;;;1.27;1.15;;;21.10;38.70;;;;;;5094649;28;20078;-11
2022/12/22 12:20:56;;;;;;;1.25;1.15;;;21.10;38.70;;;;;;5094453;28;20052;-11
2022/12/22 12:23:34;;;;;;;1.40;1.30;;;21.10;38.60;;;;;;5094490;28;20059;-11
2022/12/22 12:26:06;;;;;;;1.15;1.08;;;21.10;38.70;;;;;;5094667;28;20078;-11
2022/12/22 12:28:56;;;;;;;1.60;1.50;;;21.10;38.70;;;;;;5094511;28;20500;-11
2022/12/22 12:31:32;;;;;;;1.30;1.20;;;21.10;38.70;;;;;;5094415;28;20510;-11
2022/12/22 12:34:00;;;;;;;1.20;1.10;;;21.10;38.80;;;;;;5094566;28;20105;-11
2022/12/22 12:36:49;;;;;;;1.65;1.40;;;21.10;38.70;;;;;;5094206;28;20063;-12
2022/12/22 12:39:37;;;;;;;1.48;1.38;;;21.10;39.20;;;;;;5076045;28;20401;-11
2022/12/22 12:42:27;;;;;;;2.13;1.40;;;21.10;38.70;;;;;;5094404;28;20052;-11
2022/12/22 12:44:53;;;;;;;1.38;1.27;;;21.10;38.70;;;;;;5094321;28;20052;-11
2022/12/22 12:47:23;;;;;;;1.30;1.20;;;21.10;38.70;;;;;;5094368;28;20060;-11
2022/12/22 12:49:57;;;;;;;1.10;0.88;;;21.10;38.80;;;;;;5094341;28;20048;-11
2022/12/22 12:52:47;;;;;;;1.38;1.27;;;21.10;38.80;;;;;;5094424;28;20052;-11
2022/12/22 12:55:43;;;;;;;1.38;1.27;;;21.10;38.80;;;;;;5047652;28;20090;-11
2022/12/22 12:58:11;;;;;;;1.73;1.30;;;21.10;38.80;;;;;;5093814;28;20420;-11
2022/12/22 13:00:37;;;;;;;1.88;1.38;;;21.10;38.80;;;;;;5094209;28;20058;-11
2022/12/22 13:03:08;;;;;;;1.55;1.10;;;21.10;38.80;;;;;;5094047;28;20132;-11
2022/12/22 13:05:49;;;;;;;1.30;1.20;;;21.10;38.70;;;;;;5093896;28;20051;-12
2022/12/22 13:08:16;;;;;;;1.30;1.20;;;21.10;38.70;;;;;;5093901;28;20067;-11
2022/12/22 13:10:53;;;;;;;2.25;1.30;;;21.10;38.60;;;;;;5093786;28;20059;-11
2022/12/22 13:13:22;;;;;;;1.67;1.30;;;21.10;38.70;;;;;;5093787;28;20051;-11
2022/12/22 13:16:14;;;;;;;1.17;1.10;;;21.10;38.60;;;;;;5094304;28;20056;-11
2022/12/22 13:18:44;;;;;;;1.27;1.17;;;21.10;38.70;;;;;;5093638;28;20097;-11
2022/12/22 13:21:26;;;;;;;1.58;1.48;;;21.10;38.70;;;;;;5094108;28;20423;-11
2022/12/22 13:23:58;;;;;;;1.42;1.33;;;21.10;38.70;;;;;;5093816;28;20130;-11
2022/12/22 13:26:36;;;;;;;1.83;1.30;;;21.10;38.60;;;;;;5092331;28;20098;-11
2022/12/22 13:29:23;;;;;;;1.40;1.30;;;21.10;38.70;;;;;;5093526;28;20064;-11
2022/12/22 13:31:54;;;;;;;1.83;1.23;;;21.10;38.70;;;;;;5093560;28;20048;-11
2022/12/22 13:34:52;;;;;;;1.38;1.27;;;21.10;38.70;;;;;;5093300;28;20052;-11
2022/12/22 13:37:22;;;;;;;1.77;1.27;;;21.10;38.80;;;;;;5073116;28;20421;-11
2022/12/22 13:40:17;;;;;;;1.40;1.30;;;21.20;38.80;;;;;;5091694;28;20113;-11
2022/12/22 13:42:47;;;;;;;1.83;1.60;;;21.20;38.80;;;;;;5091900;28;20142;-12
2022/12/22 13:45:18;;;;;;;1.10;1.00;;;21.10;38.80;;;;;;5092227;28;20052;-11
2022/12/22 13:47:45;;;;;;;1.38;1.27;;;21.20;38.80;;;;;;5093275;28;20051;-11
2022/12/22 13:50:20;;;;;;;1.45;1.20;;;21.10;38.70;;;;;;5092266;28;20048;-12
2022/12/22 13:52:46;;;;;;;1.40;1.30;;;21.10;38.70;;;;;;5090755;28;20071;-12
2022/12/22 13:55:22;;;;;;;1.38;1.27;;;21.10;38.70;;;;;;5090923;28;20044;-12
2022/12/22 13:57:49;;;;;;;1.30;1.10;;;21.10;38.80;;;;;;5091379;28;20044;-12
2022/12/22 14:00:22;;;;;;;1.38;1.27;;;21.10;38.80;;;;;;5092078;28;20383;-12
2022/12/22 14:02:49;;;;;;;1.42;1.33;;;21.10;38.80;;;;;;5092141;28;20051;-13
2022/12/22 14:05:15;;;;;;;1.30;1.20;;;21.10;38.80;;;;;;5092489;28;20052;-11
2022/12/22 14:07:57;;;;;;;1.48;1.38;;;21.10;38.80;;;;;;5093003;28;20071;-11
2022/12/22 14:10:41;;;;;;;1.38;1.23;;;21.10;38.80;;;;;;5093071;28;20048;-11
2022/12/22 14:13:13;;;;;;;1.73;1.40;;;21.10;38.70;;;;;;5092946;28;20056;-11
2022/12/22 14:15:40;;;;;;;1.27;1.17;;;21.20;38.70;;;;;;5093070;28;20044;-11
2022/12/22 14:18:06;;;;;;;1.20;1.10;;;21.20;38.70;;;;;;5093333;28;20056;-11
2022/12/22 14:20:36;;;;;;;1.63;1.52;;;21.10;38.70;;;;;;5092822;28;20052;-11
2022/12/22 14:23:14;;;;;;;2.90;1.42;;;21.20;38.80;;;;;;5093367;28;20043;-11
2022/12/22 14:25:42;;;;;;;2.13;1.55;;;21.10;38.70;;;;;;5092788;28;20048;-11
2022/12/22 14:28:23;;;;;;;1.50;1.27;;;21.10;38.80;;;;;;5092553;28;20056;-11
2022/12/22 14:30:58;;;;;;;1.33;1.20;;;21.10;38.80;;;;;;5092862;28;20142;-11
2022/12/22 14:33:26;;;;;;;2.03;1.63;;;21.10;38.80;;;;;;5092232;28;20052;-11
2022/12/22 14:36:22;;;;;;;1.52;1.40;;;21.10;38.90;;;;;;5092797;28;20138;-11
2022/12/22 14:38:57;;;;;;;1.45;1.35;;;21.10;38.80;;;;;;5092540;28;20065;-11
2022/12/22 14:41:41;;;;;;;1.77;1.40;;;21.10;38.80;;;;;;5092826;28;20051;-11
2022/12/22 14:44:28;;;;;;;1.55;1.40;;;21.10;38.80;;;;;;5092882;28;20051;-11
2022/12/22 14:47:18;;;;;;;1.90;1.30;;;21.10;38.90;;;;;;5090934;28;20052;-12
2022/12/22 14:50:03;;;;;;;1.25;1.15;;;21.10;38.90;;;;;;5092444;28;20470;-11
2022/12/22 14:52:46;;;;;;;1.80;1.55;;;21.10;38.80;;;;;;5092484;28;20060;-11
2022/12/22 14:55:39;;;;;;;1.35;1.20;;;21.10;38.90;;;;;;5092431;28;20421;-11
2022/12/22 14:58:19;;;;;;;1.60;1.50;;;21.00;39.00;;;;;;5088783;28;20058;-11
2022/12/22 15:00:47;;;;;;;1.30;1.20;;;21.00;38.90;;;;;;5092608;28;20486;-11
2022/12/22 15:03:31;;;;;;;1.30;1.20;;;21.00;38.90;;;;;;5092212;28;20059;-11
2022/12/22 15:06:20;;;;;;;1.30;1.20;;;21.00;39.00;;;;;;5091870;28;20052;-11
2022/12/22 15:08:47;;;;;;;1.40;1.23;;;21.00;39.00;;;;;;5092094;28;20046;-11
2022/12/22 15:11:19;;;;;;;1.60;1.42;;;21.10;39.00;;;;;;5092225;28;20170;-11
2022/12/22 15:13:48;;;;;;;1.15;1.08;;;21.00;38.90;;;;;;5092055;28;20101;-11
2022/12/22 15:16:18;;;;;;;1.60;1.30;;;21.00;39.50;;;;;;5092025;28;20097;-11
2022/12/22 15:18:46;;;;;;;1.73;1.33;;;21.00;39.00;;;;;;5092020;28;20553;-11
2022/12/22 15:21:14;;;;;;;1.30;1.10;;;21.00;39.00;;;;;;5092108;28;20055;-11
2022/12/22 15:23:40;;;;;;;1.40;1.25;;;21.00;38.90;;;;;;5092421;28;20489;-11
2022/12/22 15:26:06;;;;;;;1.45;1.20;;;21.00;39.00;;;;;;5091856;28;20068;-11
2022/12/22 15:28:33;;;;;;;1.75;1.40;;;21.00;39.00;;;;;;5091772;28;20048;-11
2022/12/22 15:30:59;;;;;;;1.33;1.20;;;21.00;39.00;;;;;;5091748;28;20134;-11
2022/12/22 15:33:25;;;;;;;1.20;1.10;;;21.00;39.00;;;;;;5091731;28;20107;-11
2022/12/22 15:35:51;;;;;;;1.30;1.20;;;21.00;39.00;;;;;;5091820;28;20060;-11
2022/12/22 15:38:23;;;;;;;1.40;1.30;;;21.00;39.00;;;;;;5091807;28;20048;-11
2022/12/22 15:40:49;;;;;;;1.70;1.60;;;21.00;39.00;;;;;;5091745;28;20102;-11
2022/12/22 15:43:15;;;;;;;1.40;1.30;;;21.00;39.00;;;;;;5091929;28;20143;-11
2022/12/22 15:45:42;;;;;;;1.30;1.20;;;21.00;39.00;;;;;;5092175;28;20144;-11
2022/12/22 15:48:20;;;;;;;1.45;1.27;;;21.00;39.00;;;;;;5091795;28;20044;-11
2022/12/22 15:50:46;;;;;;;1.38;1.27;;;21.00;39.10;;;;;;5071740;28;20053;-11
2022/12/22 15:53:16;;;;;;;1.67;1.30;;;21.00;39.10;;;;;;5091635;28;20105;-11
2022/12/22 15:55:45;;;;;;;1.20;1.15;;;21.00;39.10;;;;;;5091997;28;20059;-11
2022/12/22 15:58:14;;;;;;;1.38;1.27;;;21.00;39.10;;;;;;5092214;28;20401;-11
2022/12/22 16:00:40;;;;;;;1.65;1.55;;;21.00;39.00;;;;;;5095196;28;20425;-11
2022/12/22 16:03:05;;;;;;;1.40;1.30;;;21.00;39.00;;;;;;5095138;28;20052;-11
2022/12/22 16:05:32;;;;;;;1.80;1.40;;;21.00;39.00;;;;;;5095007;28;20052;-11
2022/12/22 16:07:59;;;;;;;2.05;1.23;;;21.00;39.00;;;;;;5094936;28;20085;-11
2022/12/22 16:10:30;;;;;;;1.33;1.23;;;21.00;39.00;;;;;;5094874;28;20440;-11
2022/12/22 16:12:59;;;;;;;1.52;1.25;;;21.00;39.00;;;;;;5095472;28;20067;-11
2022/12/22 16:15:30;;;;;;;2.80;1.48;;;21.00;39.00;;;;;;5095167;28;20048;-11
2022/12/22 16:18:00;;;;;;;1.73;1.45;;;21.00;39.00;;;;;;5095167;28;20044;-11
2022/12/22 16:20:29;;;;;;;1.70;1.48;;;21.10;39.50;;;;;;5094591;28;20485;-11
2022/12/22 16:22:55;;;;;;;1.52;1.27;;;21.10;39.00;;;;;;5094742;28;20494;-11
2022/12/22 16:25:32;;;;;;;1.77;1.40;;;21.10;38.90;;;;;;5074999;28;20064;-11
2022/12/22 16:28:02;;;;;;;1.50;1.40;;;21.10;39.00;;;;;;5094609;28;20126;-11
2022/12/22 16:30:30;;;;;;;1.40;1.30;;;21.10;39.00;;;;;;5094426;28;20044;-11
2022/12/22 16:32:56;;;;;;;1.40;1.30;;;21.10;39.00;;;;;;5095234;28;20062;-11
2022/12/22 16:35:27;;;;;;;1.40;1.30;;;21.00;38.90;;;;;;5094552;28;20142;-11
2022/12/22 16:37:58;;;;;;;1.50;1.40;;;21.00;39.00;;;;;;5094556;28;20069;-11
2022/12/22 16:40:24;;;;;;;1.27;1.17;;;21.00;39.00;;;;;;5094540;28;20075;-11
2022/12/22 16:42:56;;;;;;;1.85;1.20;;;21.10;39.00;;;;;;5094473;28;20059;-11
2022/12/22 16:45:25;;;;;;;1.55;1.42;;;21.00;39.00;;;;;;5094747;28;20092;-11
2022/12/22 16:47:52;;;;;;;1.30;1.20;;;21.00;39.00;;;;;;5094416;28;20100;-11